Fernbank, Alabama
Current Conditions -  °F | °C
As of 6:58 PM on Friday 21 Nov 2014 (Local Time) from KCBM Reporting Station
Overcast Overcast  
Wind Chill: 54°   Ceiling: 11000
Heat Index: 54°   Visibility: 10mi
Dew Point: 47°   Wind: 5mph
Humidity: 79%   Direction: 140°SE
Pressure: 30.32"   Gusts: NA
Location:  33.5494°N, 88.1933°W
Report Text: KCBM 220058Z AUTO 14004KT 10SM OVC110 12/09 A3032 RMK AO2 SLP271 T01220086 $
Loading
Personal Weather Stations






























Interactive Weather Map New forecast layout! Learn more

10-Day Weather Forecast

Advertisements
Track Severe Weather on mobile